• Join FlightAware (Why Join?)
  • Login
  • US Flag 
01:07PM EST


 

Airport Tracker/Info


-or-


 

Live Flight TrackerFlight Track Log ✈ FLG4152 ✈ 17-Jun-2013 ✈ KCVG - KRIC

Flight Track Log - Related Links

Times and Time Zones

All times are in EDT time to prevent confusion due to time zone crossing. See the FLG4152 flight status page for this flight to view local times or setup timezone preferences in your user account.

Time Position Orientation Groundspeed Altitude Reporting Facility
EDT Latitude Longitude Course Direction KTS MPH feet Rate Location/Type
08:27PM 39.0333 -84.6667 142° Southeast 169 194 1,400  Level Cincinnati TRACON
08:28PM 39.0167 -84.6500 142° Southeast 179 206 2,200 1,860 Climbing Cincinnati TRACON
08:29PM 39.0000 -84.5667 104° East 223 257 4,200 1,560 Climbing Cincinnati TRACON
08:29PM 38.9956 -84.5439 104° East 252 290 4,500 2,340 Climbing Indianapolis Center
08:30PM 38.9739 -84.4486 106° East 279 321 7,400 2,520 Climbing Indianapolis Center
08:31PM 38.9508 -84.3519 107° East 282 325 9,700 1,860 Climbing Indianapolis Center
08:32PM 38.9253 -84.2442 107° East 308 354 11,300 1,380 Climbing Indianapolis Center
08:33PM 38.8964 -84.1264 107° East 337 388 12,600 1,260 Climbing Indianapolis Center
08:34PM 38.8669 -84.0000 107° East 359 413 13,900 1,200 Climbing Indianapolis Center
08:35PM 38.8383 -83.8642 105° East 380 437 15,100 1,140 Climbing Indianapolis Center
08:36PM 38.8086 -83.7264 105° East 394 453 16,300 1,260 Climbing Indianapolis Center
08:37PM 38.7731 -83.5628 106° East 403 464 17,700 1,140 Climbing Indianapolis Center
08:38PM 38.7642 -83.4161 94° East 409 471 18,700 900 Climbing Indianapolis Center
08:39PM 38.7642 -83.2667 90° East 416 479 19,600 1,080 Climbing Indianapolis Center
08:40PM 38.7633 -83.1131 90° East 418 481 21,000 1,380 Climbing Indianapolis Center
08:41PM 38.7644 -82.9711 89° East 404 465 22,500 1,260 Climbing Indianapolis Center
08:42PM 38.7425 -82.8358 102° East 397 457 23,700 960 Climbing Indianapolis Center
08:43PM 38.6964 -82.7094 115° Southeast 392 451 24,500 600 Climbing Indianapolis Center
08:44PM 38.6492 -82.5794 115° Southeast 400 460 25,000 240 Climbing Indianapolis Center
08:45PM 38.5992 -82.4436 115° Southeast 421 484 25,000  Level Indianapolis Center
08:46PM 38.5467 -82.3011 115° Southeast 441 507 25,000  Level Indianapolis Center
08:47PM 38.4917 -82.1542 116° Southeast 456 525 25,000  Level Indianapolis Center
08:48PM 38.4267 -81.9772 115° Southeast 462 532 25,000  Level Indianapolis Center
08:50PM 38.3717 -81.8289 115° Southeast 466 536 25,000  Level Indianapolis Center
08:51PM 38.3347 -81.6711 107° East 474 545 25,000  Level Indianapolis Center
08:52PM 38.3075 -81.5044 102° East 485 558 25,000  Level Indianapolis Center
08:53PM 38.2803 -81.3369 102° East 489 563 25,000  Level Indianapolis Center
08:54PM 38.2531 -81.1667 101° East 492 566 25,000  Level Indianapolis Center
08:55PM 38.2200 -80.9636 102° East 493 567 25,000  Level Indianapolis Center
08:56PM 38.1914 -80.7939 102° East 494 568 25,000  Level Indianapolis Center
08:57PM 38.1650 -80.6217 101° East 497 572 25,000 -120 Level Indianapolis Center
08:57PM 38.1469 -80.5242 103° East 488 562 24,800 -480 Descending Washington Center
08:58PM 38.1131 -80.3319 103° East 494 568 24,200 -600 Descending Washington Center
08:59PM 38.0864 -80.1561 101° East 494 568 23,700 -540 Descending Washington Center
09:00PM 38.0575 -79.9828 102° East 494 568 23,200 -540 Descending Washington Center
09:01PM 38.0281 -79.8150 103° East 489 563 22,700 -480 Descending Washington Center
09:02PM 38.0000 -79.6578 103° East 489 563 22,300 -480 Descending Washington Center
09:03PM 37.9703 -79.4878 102° East 489 563 21,800 -540 Descending Washington Center
09:04PM 37.9400 -79.3228 103° East 489 563 21,300 -420 Descending Washington Center
09:05PM 37.9117 -79.1556 102° East 489 563 21,000 -420 Descending Washington Center
09:06PM 37.8744 -79.0011 107° East 472 543 20,500 -540 Descending Washington Center
09:07PM 37.8306 -78.8572 111° Southeast 455 524 20,000 -600 Descending Washington Center
09:08PM 37.7850 -78.6925 109° East 441 507 19,400 -600 Descending Washington Center
09:09PM 37.7408 -78.5436 111° Southeast 447 514 18,900 -840 Descending Washington Center
09:10PM 37.6964 -78.3922 110° East 457 526 17,800 -3,060 Descending Washington Center
09:11PM 37.6558 -78.2517 110° East 452 520 12,800 -3,900 Descending Washington Center
09:12PM 37.6167 -78.1297 112° Southeast 415 478 9,900 -2,040 Descending Washington Center
09:13PM 37.5914 -78.0372 109° East 325 374 8,900 -1,680 Descending Washington Center
09:14PM 37.5769 -77.9344 100° East 301 346 6,600 -1,980 Descending Washington Center
09:15PM 37.5661 -77.8372 98° East 290 334 4,900 -1,440 Descending Washington Center
09:16PM 37.5553 -77.7425 98° East 279 321 3,700 -960 Descending Washington Center
09:17PM 37.5486 -77.6481 95° East 274 315 3,000 -780 Descending Washington Center